Lake Wenatchee to Mission Ridge
Lake Wenatchee
Latest observation 09/03 18:00 PDT
| Time (PDT) | Temp °F 1930' | RH % 1930' | Pcp1 in 1930' | PcpSum in 1930' | 24Sno in 1930' | SnoHt in 1930' |
|---|---|---|---|---|---|---|
| 09/03 18:00 | 52 | 92 | 0.01 | 0.13 | 3.7 | 4.3 |
| 09/03 17:00 | 53 | 90 | 0.07 | 0.12 | 1.8 | 3.7 |
| 09/03 16:00 | 64 | 46 | 0.00 | 0.05 | 3.8 | 4.2 |
| 09/03 15:00 | 69 | 36 | 0.00 | 0.05 | 4.4 | 5.0 |
| 09/03 14:00 | 67 | 36 | 0.00 | 0.05 | 4.5 | 4.9 |
| 09/03 13:00 | 65 | 42 | 0.00 | 0.05 | 1.7 | 4.6 |
| 09/03 12:00 | 62 | 48 | 0.00 | 0.05 | 1.3 | 2.4 |
| 09/03 11:00 | 60 | 54 | 0.00 | 0.05 | 3.5 | 3.9 |
| 09/03 10:00 | 57 | 62 | 0.00 | 0.05 | 1.3 | 3.6 |
| 09/03 09:00 | 50 | 81 | 0.00 | 0.05 | 2.1 | 4.4 |
| 09/03 08:00 | 43 | 94 | 0.00 | 0.05 | 1.8 | 4.4 |
| 09/03 07:00 | 42 | 94 | 0.00 | 0.05 | 1.7 | 4.6 |
| 09/03 06:00 | 43 | 94 | 0.00 | 0.05 | 1.0 | 4.4 |
| 09/03 05:00 | 45 | 92 | 0.00 | 0.05 | 2.8 | 4.4 |
| 09/03 04:00 | 48 | 92 | 0.00 | 0.05 | 1.1 | 4.4 |
| 09/03 03:00 | 50 | 90 | 0.00 | 0.05 | 1.2 | 4.1 |
| 09/03 02:00 | 51 | 93 | 0.00 | 0.05 | 1.1 | 4.1 |
| 09/03 01:00 | 52 | 93 | 0.01 | 0.05 | 1.2 | 4.1 |
| 09/03 00:00 | 53 | 92 | 0.02 | 0.04 | 3.6 | 1.5 |
| 09/02 23:00 | 54 | 91 | 0.00 | 0.02 | 1.3 | 4.3 |
| 09/02 22:00 | 54 | 91 | 0.00 | 0.02 | 0.9 | 3.9 |
| 09/02 21:00 | 55 | 94 | 0.00 | 0.02 | 1.1 | 3.7 |
| 09/02 20:00 | 55 | 93 | 0.01 | 0.02 | 3.9 | 3.7 |
| 09/02 19:00 | 56 | 90 | 0.01 | 0.01 | 4.3 | 3.1 |

